Wetterdaten: Woche 02.11.20 - 08.11.20 (KW45)
Datum Zeit Temp. Aussen Temp. o. S. Temp +5cm Feuchte Auss Luftdruck Regen Sonnenschein Regendauer Solar Windben Empfang
02.11.2020 00:00 17,3 C 15,6 C 14,5 C 95 % 1008,4 hPa 0,2 l/m 0,00 h 0,37 h 0 W/m 18,9 km/h (3 Bft) 97,22 %
02.11.2020 01:00 17,5 C 16,4 C 15,1 C 95 % 1008,1 hPa 0,0 l/m 0,00 h 0,00 h 0 W/m 23,7 km/h (4 Bft) 96,95 %
02.11.2020 02:00 18,3 C 17,3 C 15,7 C 92 % 1007,8 hPa 0,0 l/m 0,00 h 0,00 h 0 W/m 26,9 km/h (4 Bft) 99,43 %
02.11.2020 03:00 18,8 C 18,1 C 16,6 C 89 % 1007,6 hPa 0,0 l/m 0,00 h 0,00 h 0 W/m 26,0 km/h (4 Bft) 96,15 %
02.11.2020 04:00 18,8 C 17,8 C 16,7 C 90 % 1007,8 hPa 0,0 l/m 0,00 h 0,00 h 0 W/m 24,6 km/h (4 Bft) 97,16 %
02.11.2020 05:00 18,6 C 17,8 C 16,7 C 90 % 1007,8 hPa 0,0 l/m 0,00 h 0,00 h 0 W/m 25,4 km/h (4 Bft) 99,83 %
02.11.2020 06:00 18,7 C 17,8 C 16,7 C 90 % 1007,7 hPa 0,0 l/m 0,00 h 0,00 h 0 W/m 30,7 km/h (5 Bft) 96,24 %
02.11.2020 07:00 18,5 C 17,8 C 16,7 C 88 % 1007,9 hPa 0,0 l/m 0,00 h 0,00 h 9 W/m 28,3 km/h (4 Bft) 96,22 %
02.11.2020 08:00 18,9 C 18,3 C 16,8 C 84 % 1008,3 hPa 0,0 l/m 0,00 h 0,00 h 29 W/m 30,0 km/h (5 Bft) 97,83 %
02.11.2020 09:00 19,1 C 18,7 C 17,1 C 80 % 1008,6 hPa 0,0 l/m 0,00 h 0,00 h 71 W/m 30,5 km/h (5 Bft) 97,09 %
02.11.2020 10:00 19,5 C 19,2 C 17,5 C 76 % 1008,7 hPa 0,0 l/m 0,00 h 0,00 h 128 W/m 31,4 km/h (5 Bft) 96,23 %
02.11.2020 11:00 19,9 C 19,7 C 17,8 C 78 % 1008,4 hPa 0,0 l/m 0,07 h 0,00 h 149 W/m 31,0 km/h (5 Bft) 98,72 %
02.11.2020 12:00 19,9 C 19,6 C 18,3 C 80 % 1008,5 hPa 0,0 l/m 0,00 h 0,00 h 94 W/m 30,8 km/h (5 Bft) 98,69 %
02.11.2020 13:00 20,5 C 20,1 C 18,9 C 79 % 1008,2 hPa 0,0 l/m 0,03 h 0,00 h 114 W/m 40,1 km/h (6 Bft) 95,76 %
02.11.2020 14:00 20,9 C 20,6 C 18,8 C 79 % 1008,2 hPa 0,0 l/m 0,27 h 0,00 h 119 W/m 33,6 km/h (5 Bft) 97,53 %
02.11.2020 15:00 20,4 C 19,7 C 18,4 C 81 % 1008,3 hPa 0,0 l/m 0,07 h 0,00 h 68 W/m 33,4 km/h (5 Bft) 99,51 %
02.11.2020 16:00 20,1 C 18,3 C 17,3 C 82 % 1008,7 hPa 0,2 l/m 0,03 h 0,30 h 28 W/m 30,2 km/h (5 Bft) 95,53 %
02.11.2020 17:00 16,8 C 14,5 C 13,9 C 93 % 1010,5 hPa 1,0 l/m 0,00 h 0,80 h 0 W/m 15,0 km/h (3 Bft) 97,69 %
02.11.2020 18:00 14,7 C 13,0 C 12,6 C 96 % 1012,0 hPa 1,2 l/m 0,00 h 0,67 h 0 W/m 11,7 km/h (2 Bft) 99,75 %
02.11.2020 19:00 13,2 C 11,8 C 11,2 C 94 % 1013,4 hPa 0,0 l/m 0,00 h 0,17 h 0 W/m 6,8 km/h (2 Bft) 96,44 %
02.11.2020 20:00 13,0 C 11,7 C 11,1 C 93 % 1014,7 hPa 0,0 l/m 0,00 h 0,00 h 0 W/m 7,0 km/h (2 Bft) 96,22 %
02.11.2020 21:00 12,6 C 11,8 C 10,4 C 91 % 1015,8 hPa 0,0 l/m 0,00 h 0,00 h 0 W/m 6,3 km/h (2 Bft) 99,29 %
02.11.2020 22:00 12,0 C 10,9 C 9,9 C 88 % 1016,9 hPa 0,0 l/m 0,00 h 0,00 h 0 W/m 6,2 km/h (2 Bft) 97,30 %
02.11.2020 23:00 11,4 C 10,6 C 10,0 C 89 % 1017,6 hPa 0,0 l/m 0,00 h 0,00 h 0 W/m 9,0 km/h (2 Bft) 98,65 %
03.11.2020 00:00 11,0 C 10,0 C 9,6 C 89 % 1018,3 hPa 0,0 l/m 0,00 h 0,00 h 0 W/m 10,8 km/h (2 Bft) 96,41 %
03.11.2020 01:00 10,6 C 9,9 C 9,5 C 88 % 1019,0 hPa 0,0 l/m 0,00 h 0,00 h 0 W/m 11,6 km/h (2 Bft) 97,22 %
03.11.2020 02:00 10,2 C 9,4 C 8,9 C 89 % 1019,8 hPa 0,0 l/m 0,00 h 0,00 h 0 W/m 10,1 km/h (2 Bft) 97,06 %
03.11.2020 03:00 9,8 C 8,9 C 8,5 C 89 % 1020,1 hPa 0,0 l/m 0,00 h 0,00 h 0 W/m 4,7 km/h (1 Bft) 96,63 %
03.11.2020 04:00 9,4 C 8,5 C 8,2 C 89 % 1021,0 hPa 0,0 l/m 0,00 h 0,00 h 0 W/m 7,3 km/h (2 Bft) 96,80 %
03.11.2020 05:00 8,9 C 7,9 C 7,5 C 90 % 1021,4 hPa 0,0 l/m 0,00 h 0,00 h 0 W/m 4,5 km/h (1 Bft) 94,91 %
03.11.2020 06:00 8,3 C 7,0 C 6,9 C 91 % 1021,6 hPa 0,0 l/m 0,00 h 0,00 h 0 W/m 1,8 km/h (1 Bft) 99,47 %
03.11.2020 07:00 7,7 C 6,7 C 6,3 C 93 % 1022,0 hPa 0,0 l/m 0,00 h 0,00 h 9 W/m 3,5 km/h (1 Bft) 97,59 %
03.11.2020 08:00 7,5 C 7,3 C 6,8 C 94 % 1022,5 hPa 0,0 l/m 0,03 h 0,00 h 35 W/m 8,1 km/h (2 Bft) 98,07 %
03.11.2020 09:00 8,8 C 10,5 C 8,3 C 94 % 1022,9 hPa 0,0 l/m 1,00 h 0,00 h 218 W/m 13,2 km/h (3 Bft) 97,45 %
03.11.2020 10:00 10,6 C 12,6 C 9,8 C 88 % 1023,0 hPa 0,0 l/m 0,97 h 0,00 h 283 W/m 17,6 km/h (3 Bft) 98,92 %
03.11.2020 11:00 12,5 C 15,4 C 11,4 C 81 % 1022,7 hPa 0,0 l/m 0,80 h 0,00 h 308 W/m 19,2 km/h (3 Bft) 97,08 %
03.11.2020 12:00 12,8 C 15,0 C 11,5 C 76 % 1022,2 hPa 0,0 l/m 0,70 h 0,00 h 299 W/m 21,6 km/h (4 Bft) 97,35 %
03.11.2020 13:00 13,9 C 17,0 C 11,3 C 66 % 1021,6 hPa 0,0 l/m 1,00 h 0,00 h 395 W/m 29,1 km/h (5 Bft) 96,44 %
03.11.2020 14:00 13,5 C 13,2 C 10,9 C 66 % 1021,1 hPa 0,0 l/m 0,13 h 0,00 h 117 W/m 23,9 km/h (4 Bft) 98,93 %
03.11.2020 15:00 12,7 C 12,0 C 10,3 C 71 % 1021,0 hPa 0,0 l/m 0,15 h 0,07 h 45 W/m 26,2 km/h (4 Bft) 98,72 %
03.11.2020 16:00 11,7 C 10,8 C 9,4 C 74 % 1021,5 hPa 0,0 l/m 0,00 h 0,00 h 22 W/m 19,4 km/h (3 Bft) 95,25 %
03.11.2020 17:00 10,7 C 9,5 C 8,3 C 75 % 1022,1 hPa 0,0 l/m 0,00 h 0,00 h 4 W/m 14,5 km/h (3 Bft) 98,86 %
03.11.2020 18:00 9,7 C 8,6 C 7,5 C 79 % 1023,0 hPa 0,0 l/m 0,00 h 0,00 h 0 W/m 14,3 km/h (3 Bft) 97,82 %
03.11.2020 19:00 9,1 C 8,2 C 7,2 C 82 % 1023,4 hPa 0,0 l/m 0,00 h 0,00 h 0 W/m 13,8 km/h (3 Bft) 96,91 %
03.11.2020 20:00 8,8 C 8,0 C 7,0 C 83 % 1023,9 hPa 0,0 l/m 0,00 h 0,00 h 0 W/m 16,0 km/h (3 Bft) 96,70 %
03.11.2020 21:00 8,3 C 7,3 C 6,4 C 85 % 1024,5 hPa 0,0 l/m 0,00 h 0,00 h 0 W/m 13,6 km/h (3 Bft) 97,01 %
03.11.2020 22:00 7,8 C 6,9 C 6,0 C 86 % 1025,2 hPa 0,0 l/m 0,00 h 0,00 h 0 W/m 10,2 km/h (2 Bft) 96,48 %
03.11.2020 23:00 7,3 C 6,5 C 5,6 C 87 % 1025,7 hPa 0,0 l/m 0,00 h 0,00 h 0 W/m 11,1 km/h (2 Bft) 97,03 %
04.11.2020 00:00 6,8 C 5,9 C 5,1 C 88 % 1026,4 hPa 0,0 l/m 0,00 h 0,00 h 0 W/m 8,7 km/h (2 Bft) 97,80 %
04.11.2020 01:00 6,4 C 5,5 C 4,9 C 90 % 1026,9 hPa 0,0 l/m 0,00 h 0,00 h 0 W/m 7,2 km/h (2 Bft) 95,05 %
04.11.2020 02:00 5,9 C 4,7 C 4,2 C 91 % 1027,4 hPa 0,0 l/m 0,00 h 0,00 h 0 W/m 1,8 km/h (1 Bft) 97,01 %
04.11.2020 03:00 5,4 C 4,4 C 3,9 C 92 % 1027,8 hPa 0,0 l/m 0,00 h 0,00 h 0 W/m 0,6 km/h (0 Bft) 98,79 %
04.11.2020 04:00 5,0 C 4,1 C 3,9 C 94 % 1028,1 hPa 0,0 l/m 0,00 h 0,00 h 0 W/m 0,6 km/h (0 Bft) 98,75 %
04.11.2020 05:00 4,7 C 3,6 C 3,1 C 94 % 1028,6 hPa 0,0 l/m 0,00 h 0,00 h 0 W/m 1,3 km/h (1 Bft) 96,83 %
04.11.2020 06:00 4,2 C 3,2 C 2,3 C 95 % 1029,1 hPa 0,0 l/m 0,00 h 0,00 h 0 W/m 0,7 km/h (0 Bft) 97,06 %
04.11.2020 07:00 4,0 C 3,3 C 2,8 C 95 % 1029,8 hPa 0,0 l/m 0,00 h 0,00 h 8 W/m 1,9 km/h (1 Bft) 96,94 %
04.11.2020 08:00 4,0 C 3,9 C 3,2 C 96 % 1030,6 hPa 0,0 l/m 0,00 h 0,00 h 27 W/m 1,8 km/h (1 Bft) 97,02 %
04.11.2020 09:00 5,4 C 7,4 C 5,0 C 97 % 1031,5 hPa 0,0 l/m 1,00 h 0,00 h 208 W/m 3,7 km/h (1 Bft) 99,20 %
04.11.2020 10:00 7,2 C 10,2 C 6,4 C 96 % 1032,1 hPa 0,0 l/m 0,90 h 0,00 h 259 W/m 2,8 km/h (1 Bft) 95,64 %
04.11.2020 11:00 9,0 C 16,2 C 7,5 C 90 % 1032,8 hPa 0,0 l/m 0,97 h 0,00 h 368 W/m 2,6 km/h (1 Bft) 97,71 %
04.11.2020 12:00 11,5 C 18,0 C 8,9 C 81 % 1033,0 hPa 0,0 l/m 1,00 h 0,00 h 423 W/m 2,1 km/h (1 Bft) 99,37 %
04.11.2020 13:00 12,8 C 16,6 C 9,4 C 77 % 1032,9 hPa 0,0 l/m 0,60 h 0,00 h 293 W/m 4,7 km/h (1 Bft) 97,09 %
04.11.2020 14:00 12,9 C 17,4 C 9,3 C 74 % 1032,9 hPa 0,0 l/m 1,00 h 0,00 h 311 W/m 4,6 km/h (1 Bft) 96,71 %
04.11.2020 15:00 11,6 C 10,8 C 8,3 C 75 % 1033,2 hPa 0,0 l/m 0,50 h 0,00 h 123 W/m 1,0 km/h (0 Bft) 96,56 %
04.11.2020 16:00 10,3 C 8,7 C 6,8 C 79 % 1033,7 hPa 0,0 l/m 0,00 h 0,00 h 24 W/m 0,3 km/h (0 Bft) 97,50 %
04.11.2020 17:00 8,5 C 6,0 C 4,5 C 83 % 1034,5 hPa 0,0 l/m 0,00 h 0,00 h 4 W/m 0,0 km/h (0 Bft) 97,09 %
04.11.2020 18:00 6,6 C 4,3 C 3,3 C 87 % 1035,1 hPa 0,0 l/m 0,00 h 0,00 h 0 W/m 0,0 km/h (0 Bft) 97,76 %
04.11.2020 19:00 5,2 C 3,4 C 2,4 C 88 % 1036,1 hPa 0,0 l/m 0,00 h 0,00 h 0 W/m 0,0 km/h (0 Bft) 97,01 %
04.11.2020 20:00 4,3 C 3,1 C 2,0 C 89 % 1036,7 hPa 0,0 l/m 0,00 h 0,00 h 0 W/m 0,0 km/h (0 Bft) 94,14 %
04.11.2020 21:00 3,6 C 2,1 C 1,4 C 91 % 1037,2 hPa 0,0 l/m 0,00 h 0,00 h 0 W/m 0,0 km/h (0 Bft) 97,09 %
04.11.2020 22:00 2,8 C 1,6 C 1,1 C 91 % 1037,5 hPa 0,0 l/m 0,00 h 0,00 h 0 W/m 0,0 km/h (0 Bft) 96,64 %
04.11.2020 23:00 2,3 C 1,1 C 0,6 C 92 % 1037,8 hPa 0,0 l/m 0,00 h 0,00 h 0 W/m 0,0 km/h (0 Bft) 94,47 %
05.11.2020 00:00 1,8 C 0,7 C 0,1 C 93 % 1038,0 hPa 0,0 l/m 0,00 h 0,00 h 0 W/m 0,0 km/h (0 Bft) 96,57 %
05.11.2020 01:00 1,4 C 0,3 C 0,1 C 94 % 1038,5 hPa 0,0 l/m 0,00 h 0,00 h 0 W/m 0,0 km/h (0 Bft) 99,15 %
05.11.2020 02:00 1,0 C -0,1 C -0,4 C 94 % 1038,5 hPa 0,0 l/m 0,00 h 0,00 h 0 W/m 0,0 km/h (0 Bft) 96,87 %
05.11.2020 03:00 0,8 C -0,1 C -0,4 C 95 % 1038,5 hPa 0,0 l/m 0,00 h 0,00 h 0 W/m 0,0 km/h (0 Bft) 98,72 %
05.11.2020 04:00 0,4 C -1,1 C -1,1 C 95 % 1038,8 hPa 0,0 l/m 0,00 h 0,00 h 0 W/m 0,0 km/h (0 Bft) 98,09 %
05.11.2020 05:00 -0,1 C -1,0 C -1,3 C 95 % 1039,2 hPa 0,2 l/m 0,00 h 0,00 h 0 W/m 0,0 km/h (0 Bft) 94,06 %
05.11.2020 06:00 0,3 C -0,0 C -0,2 C 96 % 1039,1 hPa 0,0 l/m 0,00 h 0,00 h 0 W/m 0,2 km/h (0 Bft) 95,88 %
05.11.2020 07:00 0,6 C -0,4 C -0,3 C 97 % 1039,4 hPa 0,0 l/m 0,00 h 0,00 h 9 W/m 0,1 km/h (0 Bft) 96,53 %
05.11.2020 08:00 1,0 C 0,6 C 0,5 C 97 % 1039,9 hPa 0,0 l/m 0,00 h 0,00 h 31 W/m 1,7 km/h (1 Bft) 97,15 %
05.11.2020 09:00 2,4 C 2,6 C 1,9 C 98 % 1040,1 hPa 0,0 l/m 1,00 h 0,00 h 194 W/m 3,2 km/h (1 Bft) 97,15 %
05.11.2020 10:00 4,1 C 6,4 C 3,9 C 99 % 1040,3 hPa 0,0 l/m 0,97 h 0,00 h 253 W/m 1,2 km/h (1 Bft) 96,51 %
05.11.2020 11:00 6,1 C 13,4 C 5,7 C 99 % 1040,5 hPa 0,0 l/m 0,97 h 0,00 h 357 W/m 1,2 km/h (1 Bft) 94,81 %
05.11.2020 12:00 8,4 C 14,8 C 7,6 C 98 % 1039,9 hPa 0,0 l/m 1,00 h 0,00 h 394 W/m 4,8 km/h (1 Bft) 96,27 %
05.11.2020 13:00 10,7 C 15,7 C 9,2 C 88 % 1039,5 hPa 0,0 l/m 1,00 h 0,00 h 345 W/m 2,2 km/h (1 Bft) 95,80 %
05.11.2020 14:00 11,1 C 14,7 C 8,6 C 82 % 1038,8 hPa 0,0 l/m 1,00 h 0,00 h 279 W/m 1,3 km/h (1 Bft) 98,58 %
05.11.2020 15:00 10,4 C 9,6 C 7,5 C 81 % 1038,5 hPa 0,0 l/m 0,40 h 0,00 h 99 W/m 1,1 km/h (0 Bft) 98,58 %
05.11.2020 16:00 9,4 C 8,5 C 7,2 C 82 % 1038,0 hPa 0,0 l/m 0,17 h 0,00 h 22 W/m 1,2 km/h (1 Bft) 95,57 %
05.11.2020 17:00 8,4 C 6,1 C 5,0 C 84 % 1038,0 hPa 0,0 l/m 0,00 h 0,00 h 5 W/m 0,0 km/h (0 Bft) 97,79 %
05.11.2020 18:00 6,5 C 4,3 C 3,4 C 88 % 1038,1 hPa 0,0 l/m 0,00 h 0,00 h 0 W/m 0,0 km/h (0 Bft) 99,10 %
05.11.2020 19:00 5,2 C 3,6 C 3,0 C 90 % 1038,3 hPa 0,0 l/m 0,00 h 0,00 h 0 W/m 0,0 km/h (0 Bft) 97,15 %
05.11.2020 20:00 4,9 C 4,6 C 3,9 C 92 % 1038,0 hPa 0,0 l/m 0,00 h 0,00 h 0 W/m 0,0 km/h (0 Bft) 97,94 %
05.11.2020 21:00 5,0 C 3,8 C 3,1 C 94 % 1037,8 hPa 0,0 l/m 0,00 h 0,00 h 0 W/m 0,0 km/h (0 Bft) 92,81 %
05.11.2020 22:00 4,2 C 2,7 C 2,1 C 93 % 1037,7 hPa 0,0 l/m 0,00 h 0,00 h 0 W/m 0,0 km/h (0 Bft) 96,51 %
05.11.2020 23:00 3,5 C 2,0 C 1,6 C 93 % 1037,4 hPa 0,0 l/m 0,00 h 0,00 h 0 W/m 0,0 km/h (0 Bft) 92,04 %
06.11.2020 00:00 2,8 C 1,3 C 1,2 C 93 % 1037,1 hPa 0,0 l/m 0,00 h 0,00 h 0 W/m 0,0 km/h (0 Bft) 97,95 %
06.11.2020 01:00 2,4 C 1,9 C 1,6 C 94 % 1036,9 hPa 0,0 l/m 0,00 h 0,00 h 0 W/m 0,0 km/h (0 Bft) 97,95 %
06.11.2020 02:00 2,9 C 2,7 C 2,5 C 96 % 1036,6 hPa 0,0 l/m 0,00 h 0,00 h 0 W/m 0,0 km/h (0 Bft) 96,08 %
06.11.2020 03:00 3,7 C 3,6 C 3,3 C 97 % 1036,3 hPa 0,0 l/m 0,00 h 0,00 h 0 W/m 0,0 km/h (0 Bft) 97,22 %
06.11.2020 04:00 4,0 C 2,5 C 2,5 C 97 % 1036,0 hPa 0,0 l/m 0,00 h 0,00 h 0 W/m 0,0 km/h (0 Bft) 97,07 %
06.11.2020 05:00 3,2 C 1,9 C 1,9 C 97 % 1035,8 hPa 0,0 l/m 0,00 h 0,00 h 0 W/m 0,0 km/h (0 Bft) 96,97 %
06.11.2020 06:00 2,8 C 1,3 C 1,5 C 97 % 1035,4 hPa 0,0 l/m 0,00 h 0,00 h 0 W/m 0,1 km/h (0 Bft) 97,89 %
06.11.2020 07:00 2,1 C 1,2 C 1,1 C 97 % 1035,4 hPa 0,0 l/m 0,00 h 0,00 h 9 W/m 0,1 km/h (0 Bft) 97,66 %
06.11.2020 08:00 2,2 C 1,5 C 1,5 C 97 % 1035,6 hPa 0,0 l/m 0,00 h 0,00 h 29 W/m 0,0 km/h (0 Bft) 92,92 %
06.11.2020 09:00 3,4 C 4,8 C 3,6 C 98 % 1035,5 hPa 0,0 l/m 1,00 h 0,00 h 188 W/m 0,2 km/h (0 Bft) 97,40 %
06.11.2020 10:00 5,7 C 8,1 C 5,7 C 99 % 1035,3 hPa 0,0 l/m 0,80 h 0,00 h 223 W/m 1,3 km/h (1 Bft) 97,93 %
06.11.2020 11:00 7,4 C 13,5 C 7,5 C 98 % 1034,9 hPa 0,0 l/m 1,00 h 0,00 h 351 W/m 5,6 km/h (1 Bft) 98,15 %
06.11.2020 12:00 10,5 C 16,1 C 9,6 C 82 % 1033,9 hPa 0,0 l/m 1,00 h 0,00 h 405 W/m 6,2 km/h (2 Bft) 98,20 %
06.11.2020 13:00 12,2 C 16,6 C 10,6 C 70 % 1033,0 hPa 0,0 l/m 1,00 h 0,00 h 373 W/m 15,2 km/h (3 Bft) 96,73 %
06.11.2020 14:00 13,3 C 17,6 C 10,0 C 68 % 1032,0 hPa 0,0 l/m 1,00 h 0,00 h 305 W/m 6,9 km/h (2 Bft) 97,02 %
06.11.2020 15:00 12,7 C 11,5 C 8,6 C 69 % 1031,1 hPa 0,0 l/m 0,30 h 0,00 h 82 W/m 2,2 km/h (1 Bft) 99,36 %
06.11.2020 16:00 10,9 C 8,4 C 6,0 C 74 % 1030,3 hPa 0,0 l/m 0,00 h 0,00 h 14 W/m 0,0 km/h (0 Bft) 95,67 %
06.11.2020 17:00 8,2 C 5,5 C 4,0 C 83 % 1029,9 hPa 0,0 l/m 0,00 h 0,00 h 2 W/m 0,0 km/h (0 Bft) 95,30 %
06.11.2020 18:00 6,3 C 4,2 C 3,0 C 86 % 1029,6 hPa 0,0 l/m 0,00 h 0,00 h 0 W/m 0,1 km/h (0 Bft) 97,84 %
06.11.2020 19:00 5,1 C 3,9 C 2,8 C 89 % 1028,9 hPa 0,0 l/m 0,00 h 0,00 h 0 W/m 0,9 km/h (0 Bft) 96,55 %
06.11.2020 20:00 4,5 C 3,7 C 2,6 C 90 % 1028,3 hPa 0,0 l/m 0,00 h 0,00 h 0 W/m 1,1 km/h (0 Bft) 95,87 %
06.11.2020 21:00 4,8 C 5,1 C 3,7 C 90 % 1027,9 hPa 0,0 l/m 0,00 h 0,00 h 0 W/m 3,3 km/h (1 Bft) 98,15 %
06.11.2020 22:00 5,9 C 5,7 C 4,4 C 83 % 1027,5 hPa 0,0 l/m 0,00 h 0,00 h 0 W/m 10,1 km/h (2 Bft) 97,86 %
06.11.2020 23:00 6,9 C 6,3 C 5,2 C 75 % 1027,1 hPa 0,0 l/m 0,00 h 0,00 h 0 W/m 18,9 km/h (3 Bft) 96,15 %
07.11.2020 00:00 6,9 C 6,1 C 5,0 C 73 % 1026,6 hPa 0,0 l/m 0,00 h 0,00 h 0 W/m 19,9 km/h (4 Bft) 98,99 %
07.11.2020 01:00 6,8 C 6,1 C 4,9 C 75 % 1026,3 hPa 0,0 l/m 0,00 h 0,00 h 0 W/m 17,7 km/h (3 Bft) 96,14 %
07.11.2020 02:00 6,5 C 5,7 C 4,6 C 77 % 1026,2 hPa 0,0 l/m 0,00 h 0,00 h 0 W/m 10,3 km/h (2 Bft) 96,23 %
07.11.2020 03:00 6,1 C 5,3 C 4,1 C 80 % 1026,0 hPa 0,0 l/m 0,00 h 0,00 h 0 W/m 9,2 km/h (2 Bft) 97,15 %
07.11.2020 04:00 6,1 C 5,6 C 4,5 C 80 % 1025,7 hPa 0,0 l/m 0,00 h 0,00 h 0 W/m 16,2 km/h (3 Bft) 98,72 %
07.11.2020 05:00 6,3 C 5,6 C 4,5 C 81 % 1025,5 hPa 0,0 l/m 0,00 h 0,00 h 0 W/m 13,1 km/h (3 Bft) 97,51 %
07.11.2020 06:00 6,2 C 5,6 C 4,5 C 83 % 1025,3 hPa 0,0 l/m 0,00 h 0,00 h 0 W/m 11,1 km/h (2 Bft) 96,25 %
07.11.2020 07:00 6,3 C 5,6 C 4,5 C 83 % 1025,2 hPa 0,0 l/m 0,00 h 0,00 h 7 W/m 13,8 km/h (3 Bft) 96,72 %
07.11.2020 08:00 6,6 C 6,4 C 5,1 C 83 % 1025,4 hPa 0,0 l/m 0,00 h 0,00 h 37 W/m 19,0 km/h (3 Bft) 96,73 %
07.11.2020 09:00 7,5 C 8,0 C 6,1 C 83 % 1025,3 hPa 0,0 l/m 1,00 h 0,00 h 145 W/m 20,3 km/h (4 Bft) 97,79 %
07.11.2020 10:00 8,9 C 10,3 C 7,4 C 82 % 1025,5 hPa 0,0 l/m 1,00 h 0,00 h 229 W/m 20,2 km/h (4 Bft) 96,58 %
07.11.2020 11:00 10,8 C 14,9 C 9,2 C 79 % 1024,9 hPa 0,0 l/m 1,00 h 0,00 h 314 W/m 16,1 km/h (3 Bft) 99,64 %
07.11.2020 12:00 13,2 C 17,7 C 11,1 C 74 % 1024,1 hPa 0,0 l/m 1,00 h 0,00 h 350 W/m 14,7 km/h (3 Bft) 97,25 %
07.11.2020 13:00 14,9 C 18,6 C 12,1 C 71 % 1023,8 hPa 0,0 l/m 1,00 h 0,00 h 318 W/m 14,0 km/h (3 Bft) 97,94 %
07.11.2020 14:00 15,6 C 18,9 C 12,5 C 69 % 1023,3 hPa 0,0 l/m 1,00 h 0,00 h 284 W/m 11,6 km/h (2 Bft) 95,50 %
07.11.2020 15:00 15,4 C 14,7 C 12,3 C 69 % 1022,8 hPa 0,0 l/m 0,20 h 0,00 h 78 W/m 9,8 km/h (2 Bft) 99,65 %
07.11.2020 16:00 14,3 C 12,5 C 9,6 C 74 % 1022,6 hPa 0,0 l/m 0,00 h 0,00 h 19 W/m 1,5 km/h (1 Bft) 96,65 %
07.11.2020 17:00 11,9 C 9,6 C 7,1 C 80 % 1022,5 hPa 0,0 l/m 0,00 h 0,00 h 0 W/m 0,9 km/h (0 Bft) 96,73 %
07.11.2020 18:00 11,2 C 10,9 C 9,1 C 80 % 1022,6 hPa 0,0 l/m 0,00 h 0,00 h 0 W/m 9,3 km/h (2 Bft) 97,66 %
07.11.2020 19:00 11,3 C 10,6 C 9,1 C 77 % 1022,5 hPa 0,0 l/m 0,00 h 0,00 h 0 W/m 15,6 km/h (3 Bft) 99,36 %
07.11.2020 20:00 11,0 C 10,1 C 8,6 C 77 % 1022,4 hPa 0,0 l/m 0,00 h 0,00 h 0 W/m 17,4 km/h (3 Bft) 95,13 %
07.11.2020 21:00 10,1 C 9,2 C 7,8 C 79 % 1022,4 hPa 0,0 l/m 0,00 h 0,00 h 0 W/m 11,0 km/h (2 Bft) 97,51 %
07.11.2020 22:00 9,7 C 8,7 C 7,4 C 80 % 1022,5 hPa 0,0 l/m 0,00 h 0,00 h 0 W/m 8,6 km/h (2 Bft) 99,43 %
07.11.2020 23:00 9,2 C 8,1 C 6,9 C 81 % 1022,6 hPa 0,0 l/m 0,00 h 0,00 h 0 W/m 6,1 km/h (2 Bft) 94,24 %
08.11.2020 00:00 8,7 C 7,8 C 6,6 C 82 % 1022,5 hPa 0,0 l/m 0,00 h 0,00 h 0 W/m 7,8 km/h (2 Bft) 97,79 %
08.11.2020 01:00 8,3 C 7,4 C 6,1 C 83 % 1022,4 hPa 0,0 l/m 0,00 h 0,00 h 0 W/m 10,8 km/h (2 Bft) 96,36 %
08.11.2020 02:00 7,9 C 6,9 C 5,8 C 85 % 1022,4 hPa 0,0 l/m 0,00 h 0,00 h 0 W/m 3,3 km/h (1 Bft) 94,95 %
08.11.2020 03:00 7,5 C 6,7 C 5,6 C 86 % 1022,1 hPa 0,0 l/m 0,00 h 0,00 h 0 W/m 6,3 km/h (2 Bft) 99,44 %
08.11.2020 04:00 7,4 C 6,6 C 5,7 C 87 % 1021,9 hPa 0,0 l/m 0,00 h 0,00 h 0 W/m 6,3 km/h (2 Bft) 96,59 %
08.11.2020 05:00 7,1 C 6,6 C 5,5 C 89 % 1022,0 hPa 0,0 l/m 0,00 h 0,00 h 0 W/m 4,5 km/h (1 Bft) 94,04 %
08.11.2020 06:00 7,2 C 6,7 C 5,6 C 89 % 1022,3 hPa 0,0 l/m 0,00 h 0,00 h 0 W/m 10,2 km/h (2 Bft) 96,86 %
08.11.2020 07:00 7,2 C 6,5 C 5,6 C 89 % 1022,6 hPa 0,0 l/m 0,00 h 0,00 h 9 W/m 4,9 km/h (1 Bft) 96,32 %
08.11.2020 08:00 7,2 C 7,2 C 6,0 C 91 % 1022,8 hPa 0,0 l/m 0,00 h 0,00 h 41 W/m 4,9 km/h (1 Bft) 96,58 %
08.11.2020 09:00 8,5 C 9,6 C 7,6 C 90 % 1023,0 hPa 0,0 l/m 1,00 h 0,00 h 152 W/m 9,1 km/h (2 Bft) 95,71 %
08.11.2020 10:00 10,2 C 11,7 C 9,1 C 86 % 1023,1 hPa 0,0 l/m 0,77 h 0,00 h 186 W/m 16,4 km/h (3 Bft) 96,20 %
08.11.2020 11:00 11,7 C 14,3 C 10,2 C 83 % 1023,1 hPa 0,0 l/m 0,80 h 0,00 h 233 W/m 13,1 km/h (3 Bft) 96,17 %
08.11.2020 12:00 13,7 C 16,8 C 12,0 C 78 % 1022,9 hPa 0,0 l/m 1,00 h 0,00 h 310 W/m 14,4 km/h (3 Bft) 98,46 %
08.11.2020 13:00 14,8 C 16,3 C 12,9 C 77 % 1022,6 hPa 0,0 l/m 0,43 h 0,00 h 194 W/m 10,7 km/h (2 Bft) 97,86 %
08.11.2020 14:00 14,9 C 14,5 C 12,2 C 79 % 1022,0 hPa 0,0 l/m 0,00 h 0,00 h 84 W/m 5,4 km/h (1 Bft) 96,58 %
08.11.2020 15:00 14,3 C 13,2 C 11,1 C 81 % 1022,1 hPa 0,0 l/m 0,00 h 0,00 h 41 W/m 2,0 km/h (1 Bft) 98,44 %
08.11.2020 16:00 13,2 C 11,6 C 10,2 C 83 % 1022,1 hPa 0,0 l/m 0,00 h 0,00 h 17 W/m 3,3 km/h (1 Bft) 97,51 %
08.11.2020 17:00 12,0 C 10,6 C 9,5 C 85 % 1022,5 hPa 0,0 l/m 0,00 h 0,00 h 0 W/m 3,8 km/h (1 Bft) 95,44 %
08.11.2020 18:00 11,5 C 10,7 C 9,5 C 88 % 1022,7 hPa 0,0 l/m 0,00 h 0,00 h 0 W/m 4,0 km/h (1 Bft) 98,49 %
08.11.2020 19:00 11,6 C 11,4 C 10,0 C 89 % 1022,8 hPa 0,0 l/m 0,00 h 0,00 h 0 W/m 4,4 km/h (1 Bft) 98,36 %
08.11.2020 20:00 12,0 C 11,3 C 10,0 C 89 % 1022,9 hPa 0,0 l/m 0,00 h 0,00 h 0 W/m 2,8 km/h (1 Bft) 94,80 %
08.11.2020 21:00 11,9 C 11,2 C 10,0 C 89 % 1023,1 hPa 0,0 l/m 0,00 h 0,00 h 0 W/m 3,5 km/h (1 Bft) 98,51 %
08.11.2020 22:00 11,9 C 11,1 C 9,9 C 90 % 1023,2 hPa 0,0 l/m 0,00 h 0,00 h 0 W/m 0,1 km/h (0 Bft) 98,51 %
08.11.2020 23:00 11,7 C 10,4 C 9,5 C 91 % 1023,3 hPa 0,0 l/m 0,00 h 0,40 h 0 W/m 2,7 km/h (1 Bft) 94,28 %
Min-Datum _ 05.11.20 05.11.20 05.11.20 03.11.20 02.11.20 - - - - 02.11.20 08.11.20
_ Min-Zeit 05:40 05:16 04:56 14:06 03:34 - - - - 19:08 05:10
Minimum _ -0,2 C -1,7 C -1,6 C 63 % 1007,5 hPa - - - - 0,0 km/h (0 Bft) 43,24 %
Max-Datum _ 02.11.20 02.11.20 02.11.20 05.11.20 05.11.20 02.11.20 05.11.20 02.11.20 03.11.20 02.11.20 02.11.20
_ Max-Zeit 14:12 14:04 14:08 10:14 11:28 18:00 12:08 18:07 11:16 02:06 00:18
Maximum _ 21,3 C 23,9 C 20,0 C 99 % 1040,6 hPa 1,2 l/m 0,07 h 0,05 h 538 W/m 64,4 km/h
S (8 Bft)
100,00 %
Durchschnitt _ 9,3 C 9,2 C 7,4 C 86 % 1026,1 hPa #2,8 l/m #34:01 h #2:50 h 157 W/m 8,8 km/h (2 Bft) 97,11 %
© 2020 W. Hausmann